createdAt,value
2018-08-03T00:02:10.367Z,21.30
2018-08-03T00:07:07.250Z,21.20
2018-08-03T00:09:35.652Z,21.10
2018-08-03T00:12:04.168Z,21.00
2018-08-03T00:14:32.542Z,21.00
2018-08-03T00:17:01.593Z,21.00
2018-08-03T00:19:30.051Z,20.90
2018-08-03T00:21:58.518Z,20.90
2018-08-03T00:24:26.874Z,20.90
2018-08-03T00:26:55.821Z,20.90
2018-08-03T00:29:24.734Z,20.80
2018-08-03T00:31:53.232Z,20.80
2018-08-03T00:34:21.584Z,20.70
2018-08-03T00:36:49.948Z,20.70
2018-08-03T00:39:18.428Z,20.70
2018-08-03T00:41:46.887Z,20.60
2018-08-03T00:44:21.755Z,20.60
2018-08-03T00:46:50.090Z,20.60
2018-08-03T00:49:19.048Z,20.50
2018-08-03T00:51:47.438Z,20.50
2018-08-03T00:54:15.830Z,20.50
2018-08-03T00:56:45.006Z,20.40
2018-08-03T00:59:13.344Z,20.40
2018-08-03T01:01:41.747Z,20.40
2018-08-03T01:04:10.106Z,20.40
2018-08-03T01:06:38.497Z,20.30
2018-08-03T01:09:09.495Z,20.30
2018-08-03T01:14:06.290Z,20.20
2018-08-03T01:16:42.519Z,20.20
2018-08-03T01:19:12.888Z,20.20
2018-08-03T01:21:41.696Z,20.20
2018-08-03T01:24:10.271Z,20.20
2018-08-03T01:26:38.639Z,20.20
2018-08-03T01:29:07.034Z,20.20
2018-08-03T01:31:35.426Z,20.10
2018-08-03T01:34:03.821Z,20.10
2018-08-03T01:36:32.193Z,20.10
2018-08-03T01:39:00.590Z,20.10
2018-08-03T01:41:28.971Z,20.00
2018-08-03T01:43:57.322Z,20.00
2018-08-03T01:46:25.770Z,20.00
2018-08-03T01:48:54.160Z,19.90
2018-08-03T01:51:22.535Z,19.90
2018-08-03T01:53:50.928Z,19.90
2018-08-03T01:58:48.056Z,19.90
2018-08-03T02:01:16.462Z,19.80
2018-08-03T02:03:44.855Z,19.80
2018-08-03T02:06:13.209Z,19.80
2018-08-03T02:08:42.163Z,19.80
2018-08-03T02:11:10.529Z,19.70
2018-08-03T02:13:38.877Z,19.70
2018-08-03T02:16:07.839Z,19.70
2018-08-03T02:18:36.272Z,19.70
2018-08-03T02:21:04.646Z,19.70
2018-08-03T02:23:33.030Z,19.60
2018-08-03T02:26:01.480Z,19.60
2018-08-03T02:28:30.058Z,19.60
2018-08-03T02:30:58.472Z,19.60
2018-08-03T02:33:26.868Z,19.50
2018-08-03T02:35:55.312Z,19.60
2018-08-03T02:38:23.690Z,19.60
2018-08-03T02:40:52.161Z,19.50
2018-08-03T02:43:20.579Z,19.50
2018-08-03T02:45:48.917Z,19.50
2018-08-03T02:48:17.301Z,19.50
2018-08-03T02:50:45.751Z,19.50
2018-08-03T02:53:14.113Z,19.50
2018-08-03T02:55:42.481Z,19.50
2018-08-03T02:58:10.937Z,19.50
2018-08-03T03:00:39.405Z,19.40
2018-08-03T03:03:07.757Z,19.40
2018-08-03T03:05:36.257Z,19.40
2018-08-03T03:08:04.663Z,19.40
2018-08-03T03:10:33.109Z,19.40
2018-08-03T03:13:01.473Z,19.40
2018-08-03T03:15:29.833Z,19.40
2018-08-03T03:17:58.171Z,19.40
2018-08-03T03:20:27.200Z,19.40
2018-08-03T03:22:55.567Z,19.40
2018-08-03T03:25:23.955Z,19.40
2018-08-03T03:27:52.335Z,19.40
2018-08-03T03:30:20.717Z,19.40
2018-08-03T03:32:50.320Z,19.40
2018-08-03T03:35:18.735Z,19.40
2018-08-03T03:37:47.083Z,19.40
2018-08-03T03:40:15.463Z,19.40
2018-08-03T03:42:43.883Z,19.50
2018-08-03T03:45:12.271Z,19.50
2018-08-03T03:47:40.746Z,19.50
2018-08-03T03:50:09.257Z,19.50
2018-08-03T03:52:37.615Z,19.50
2018-08-03T03:55:06.715Z,19.50
2018-08-03T03:57:35.353Z,19.50
2018-08-03T04:00:04.557Z,19.40
2018-08-03T04:02:33.635Z,19.30
2018-08-03T04:05:02.035Z,19.30
2018-08-03T04:07:30.393Z,19.30
2018-08-03T04:09:58.853Z,19.20
2018-08-03T04:12:27.281Z,19.20
2018-08-03T04:14:55.604Z,19.20
2018-08-03T04:17:23.958Z,19.20
2018-08-03T04:19:53.095Z,19.20
2018-08-03T04:22:21.455Z,19.20
2018-08-03T04:24:49.856Z,19.20
2018-08-03T04:29:46.413Z,19.30
2018-08-03T04:32:14.846Z,19.30
2018-08-03T04:34:43.278Z,19.40
2018-08-03T04:37:11.655Z,19.40
2018-08-03T04:39:40.013Z,19.30
2018-08-03T04:42:08.411Z,19.30
2018-08-03T04:44:37.473Z,19.30
2018-08-03T04:47:05.908Z,19.30
2018-08-03T04:49:34.870Z,19.40
2018-08-03T04:56:59.676Z,19.40
2018-08-03T04:59:28.033Z,19.40
2018-08-03T05:01:56.412Z,19.40
2018-08-03T05:04:24.866Z,19.40
2018-08-03T05:06:53.325Z,19.40
2018-08-03T05:09:21.696Z,19.40
2018-08-03T05:11:50.097Z,19.40
2018-08-03T05:14:18.431Z,19.50
2018-08-03T05:16:46.936Z,19.50
2018-08-03T05:19:15.254Z,19.50
2018-08-03T05:21:43.653Z,19.50
2018-08-03T05:24:12.179Z,19.60
2018-08-03T05:26:40.555Z,19.60
2018-08-03T05:29:08.914Z,19.60
2018-08-03T05:31:37.332Z,19.70
2018-08-03T05:34:05.787Z,19.70
2018-08-03T05:36:34.194Z,19.70
2018-08-03T05:39:02.732Z,19.80
2018-08-03T05:41:31.164Z,19.80
2018-08-03T05:44:00.110Z,19.80
2018-08-03T05:46:28.460Z,19.80
2018-08-03T05:48:56.836Z,19.90
2018-08-03T05:51:25.236Z,20.00
2018-08-03T05:53:53.617Z,20.10
2018-08-03T05:56:22.000Z,20.20
2018-08-03T05:58:50.542Z,20.30
2018-08-03T06:01:18.929Z,20.30
2018-08-03T06:03:47.336Z,20.50
2018-08-03T06:06:16.452Z,20.50
2018-08-03T06:08:44.964Z,20.60
2018-08-03T06:11:13.299Z,20.70
2018-08-03T06:13:41.766Z,20.70
2018-08-03T06:16:10.132Z,20.80
2018-08-03T06:18:38.562Z,20.90
2018-08-03T06:21:06.996Z,21.00
2018-08-03T06:23:35.381Z,21.10
2018-08-03T06:26:03.782Z,21.20
2018-08-03T06:28:32.232Z,21.30
2018-08-03T06:33:28.642Z,21.50
2018-08-03T06:35:57.174Z,21.60
2018-08-03T06:38:25.619Z,21.70
2018-08-03T06:40:53.998Z,21.80
2018-08-03T06:43:22.443Z,21.90
2018-08-03T06:45:50.973Z,22.00
2018-08-03T06:48:19.371Z,22.20
2018-08-03T06:50:47.795Z,22.40
2018-08-03T06:53:16.151Z,22.60
2018-08-03T06:55:44.542Z,22.80
2018-08-03T06:58:12.958Z,23.00
2018-08-03T07:00:41.402Z,23.30
2018-08-03T07:03:09.812Z,23.40
2018-08-03T07:05:38.192Z,23.60
2018-08-03T07:10:34.820Z,23.90
2018-08-03T07:13:03.354Z,24.00
2018-08-03T07:15:31.718Z,24.10
2018-08-03T07:18:00.136Z,24.20
2018-08-03T07:20:28.686Z,24.40
2018-08-03T07:22:57.008Z,24.50
2018-08-03T07:25:25.380Z,24.60
2018-08-03T07:27:53.774Z,24.80
2018-08-03T07:30:22.128Z,24.80
2018-08-03T07:32:50.660Z,25.00
2018-08-03T07:37:47.076Z,25.20
2018-08-03T07:40:15.456Z,25.30
2018-08-03T07:42:44.374Z,25.40
2018-08-03T07:45:12.846Z,25.50
2018-08-03T07:47:41.252Z,25.60
2018-08-03T07:52:38.648Z,25.70
2018-08-03T07:55:07.022Z,25.80
2018-08-03T07:57:35.400Z,25.90
2018-08-03T08:00:03.962Z,26.10
2018-08-03T08:02:32.392Z,26.20
2018-08-03T08:05:00.805Z,26.30
2018-08-03T08:12:25.530Z,26.60
2018-08-03T08:14:54.465Z,26.60
2018-08-03T08:17:22.935Z,26.70
2018-08-03T08:19:51.425Z,26.80
2018-08-03T08:22:19.828Z,27.00
2018-08-03T08:24:48.269Z,27.10
2018-08-03T08:27:16.679Z,27.20
2018-08-03T08:29:45.151Z,27.30
2018-08-03T08:32:13.604Z,27.50
2018-08-03T08:34:42.012Z,27.50
2018-08-03T08:37:10.412Z,27.60
2018-08-03T08:39:38.766Z,27.60
2018-08-03T08:42:07.433Z,27.70
2018-08-03T08:44:35.856Z,27.80
2018-08-03T08:47:04.255Z,28.00
2018-08-03T08:49:32.739Z,28.00
2018-08-03T08:52:01.153Z,28.10
2018-08-03T08:54:29.629Z,28.20
2018-08-03T08:56:58.109Z,28.30
2018-08-03T08:59:26.497Z,28.40
2018-08-03T09:01:55.416Z,28.50
2018-08-03T09:04:23.828Z,28.70
2018-08-03T09:06:52.231Z,28.80
2018-08-03T09:09:20.653Z,29.00
2018-08-03T09:11:49.534Z,29.10
2018-08-03T09:14:18.819Z,29.20
2018-08-03T09:16:47.184Z,29.30
2018-08-03T09:24:11.715Z,29.60
2018-08-03T09:26:40.087Z,29.70
2018-08-03T09:29:08.505Z,29.80
2018-08-03T09:31:36.897Z,30.00
2018-08-03T09:34:05.372Z,30.00
2018-08-03T09:36:33.828Z,30.10
2018-08-03T09:39:02.159Z,30.20
2018-08-03T09:41:30.600Z,30.40
2018-08-03T09:43:58.944Z,30.40
2018-08-03T09:46:27.307Z,30.60
2018-08-03T09:48:55.756Z,30.80
2018-08-03T09:53:52.683Z,31.30
2018-08-03T09:56:21.020Z,31.40
2018-08-03T09:58:49.439Z,31.60
2018-08-03T10:01:17.868Z,31.70
2018-08-03T10:03:47.192Z,31.90
2018-08-03T10:06:15.576Z,31.90
2018-08-03T10:08:43.936Z,32.10
2018-08-03T10:11:12.326Z,32.20
2018-08-03T10:13:40.776Z,32.30
2018-08-03T10:16:10.400Z,32.50
2018-08-03T10:18:38.800Z,32.60
2018-08-03T10:23:36.015Z,32.80
2018-08-03T10:26:04.457Z,32.90
2018-08-03T10:28:33.054Z,33.10
2018-08-03T10:31:01.490Z,33.10
2018-08-03T10:33:29.869Z,33.30
2018-08-03T10:35:58.394Z,33.50
2018-08-03T10:38:26.826Z,33.50
2018-08-03T10:40:55.310Z,33.60
2018-08-03T10:43:23.716Z,33.70
2018-08-03T10:45:52.105Z,33.80
2018-08-03T10:48:20.577Z,34.00
2018-08-03T10:50:49.055Z,34.10
2018-08-03T10:53:17.468Z,34.20
2018-08-03T10:55:46.034Z,34.30
2018-08-03T10:58:14.414Z,34.10
2018-08-03T11:00:42.939Z,33.70
2018-08-03T11:03:11.373Z,33.30
2018-08-03T11:05:39.780Z,33.00
2018-08-03T11:08:08.189Z,32.70
2018-08-03T11:10:36.623Z,32.50
2018-08-03T11:13:05.033Z,32.70
2018-08-03T11:15:33.956Z,33.10
2018-08-03T11:20:30.448Z,33.70
2018-08-03T11:22:58.897Z,34.00
2018-08-03T11:25:27.337Z,34.20
2018-08-03T11:27:55.747Z,34.40
2018-08-03T11:30:24.146Z,34.70
2018-08-03T11:32:52.653Z,34.90
2018-08-03T11:35:21.028Z,35.00
2018-08-03T11:37:49.480Z,35.20
2018-08-03T11:40:18.646Z,35.10
2018-08-03T11:42:47.006Z,35.10
2018-08-03T11:45:15.375Z,35.10
2018-08-03T11:47:43.767Z,35.20
2018-08-03T11:50:12.294Z,35.40
2018-08-03T11:52:40.704Z,35.70
2018-08-03T11:55:09.212Z,35.90
2018-08-03T11:57:37.649Z,36.00
2018-08-03T12:00:06.089Z,36.20
2018-08-03T12:02:41.177Z,36.40
2018-08-03T12:05:09.645Z,36.30
2018-08-03T12:07:38.029Z,36.20
2018-08-03T12:10:06.421Z,35.80
2018-08-03T12:12:34.840Z,35.30
2018-08-03T12:15:03.165Z,34.90
2018-08-03T12:17:31.554Z,34.80
2018-08-03T12:19:59.991Z,34.80
2018-08-03T12:22:28.449Z,35.00
2018-08-03T12:24:56.927Z,35.10
2018-08-03T12:27:25.311Z,35.10
2018-08-03T12:29:53.739Z,35.20
2018-08-03T12:32:22.093Z,35.40
2018-08-03T12:34:50.464Z,35.80
2018-08-03T12:37:18.837Z,36.00
2018-08-03T12:39:48.171Z,36.20
2018-08-03T12:42:16.618Z,36.50
2018-08-03T12:44:45.063Z,36.60
2018-08-03T12:47:13.420Z,36.70
2018-08-03T12:49:41.800Z,36.90
2018-08-03T12:52:10.335Z,37.20
2018-08-03T12:54:38.831Z,37.20
2018-08-03T12:57:07.231Z,37.10
2018-08-03T12:59:35.687Z,37.20
2018-08-03T13:02:04.513Z,37.30
2018-08-03T13:04:33.705Z,37.30
2018-08-03T13:07:02.283Z,37.50
2018-08-03T13:09:31.237Z,37.60
2018-08-03T13:11:59.652Z,37.80
2018-08-03T13:14:28.079Z,37.90
2018-08-03T13:16:56.526Z,37.70
2018-08-03T13:19:24.920Z,37.70
2018-08-03T13:21:53.403Z,37.50
2018-08-03T13:24:21.774Z,37.50
2018-08-03T13:26:50.184Z,37.70
2018-08-03T13:29:18.620Z,38.00
2018-08-03T13:31:47.033Z,38.10
2018-08-03T13:34:15.543Z,38.30
2018-08-03T13:36:44.201Z,38.40
2018-08-03T13:39:12.597Z,38.30
2018-08-03T13:41:40.964Z,38.00
2018-08-03T13:44:09.474Z,38.10
2018-08-03T13:46:37.836Z,38.20
2018-08-03T13:49:06.228Z,38.30
2018-08-03T13:51:34.648Z,38.40
2018-08-03T13:54:03.092Z,38.50
2018-08-03T13:56:31.506Z,38.70
2018-08-03T13:59:00.039Z,38.90
2018-08-03T14:01:44.515Z,38.70
2018-08-03T14:04:12.920Z,38.30
2018-08-03T14:11:37.752Z,36.30
2018-08-03T14:14:06.204Z,36.00
2018-08-03T14:16:34.589Z,36.00
2018-08-03T14:19:02.976Z,36.30
2018-08-03T14:21:31.403Z,36.80
2018-08-03T14:24:00.089Z,37.00
2018-08-03T14:26:28.524Z,37.30
2018-08-03T14:28:56.928Z,37.40
2018-08-03T14:31:25.436Z,37.50
2018-08-03T14:33:54.394Z,37.70
2018-08-03T14:36:22.801Z,37.90
2018-08-03T14:38:51.193Z,38.00
2018-08-03T14:41:19.658Z,38.20
2018-08-03T14:43:47.996Z,38.30
2018-08-03T14:46:16.425Z,38.30
2018-08-03T14:48:44.829Z,38.30
2018-08-03T14:51:13.232Z,38.40
2018-08-03T14:53:41.591Z,38.40
2018-08-03T14:56:10.035Z,38.50
2018-08-03T14:58:38.425Z,38.50
2018-08-03T15:01:06.825Z,38.50
2018-08-03T15:03:35.186Z,38.60
2018-08-03T15:06:03.740Z,38.50
2018-08-03T15:08:32.165Z,38.50
2018-08-03T15:11:00.591Z,38.60
2018-08-03T15:13:29.082Z,38.60
2018-08-03T15:15:57.483Z,38.60
2018-08-03T15:18:25.876Z,38.60
2018-08-03T15:20:54.287Z,38.70
2018-08-03T15:23:22.855Z,38.80
2018-08-03T15:25:51.398Z,38.80
2018-08-03T15:28:20.005Z,38.90
2018-08-03T15:30:48.602Z,38.50
2018-08-03T15:33:16.995Z,38.60
2018-08-03T15:35:45.392Z,38.50
2018-08-03T15:40:42.143Z,38.70
2018-08-03T15:43:10.561Z,38.60
2018-08-03T15:45:39.091Z,38.50
2018-08-03T15:48:09.174Z,38.50
2018-08-03T15:50:37.658Z,38.50
2018-08-03T15:53:07.675Z,38.50
2018-08-03T15:55:39.996Z,38.50
2018-08-03T15:58:08.397Z,38.50
2018-08-03T16:00:36.805Z,38.60
2018-08-03T16:03:05.389Z,38.60
2018-08-03T16:05:34.710Z,38.70
2018-08-03T16:08:03.174Z,38.60
2018-08-03T16:10:31.542Z,38.40
2018-08-03T16:13:00.056Z,38.30
2018-08-03T16:15:28.464Z,38.30
2018-08-03T16:17:56.939Z,38.30
2018-08-03T16:20:25.388Z,38.20
2018-08-03T16:22:53.733Z,38.00
2018-08-03T16:25:22.076Z,37.60
2018-08-03T16:27:50.470Z,37.20
2018-08-03T16:30:18.823Z,36.60
2018-08-03T16:32:47.308Z,36.10
2018-08-03T16:35:15.683Z,35.70
2018-08-03T16:37:44.067Z,35.60
2018-08-03T16:42:40.677Z,35.90
2018-08-03T16:45:09.615Z,36.20
2018-08-03T16:47:38.103Z,36.40
2018-08-03T16:50:06.961Z,36.50
2018-08-03T16:52:35.352Z,36.70
2018-08-03T16:55:03.737Z,36.80
2018-08-03T16:57:32.085Z,36.90
2018-08-03T17:00:00.490Z,36.90
2018-08-03T17:02:28.859Z,36.90
2018-08-03T17:04:57.195Z,36.90
2018-08-03T17:07:25.595Z,36.90
2018-08-03T17:09:53.994Z,36.90
2018-08-03T17:12:22.890Z,36.80
2018-08-03T17:14:51.243Z,36.80
2018-08-03T17:17:19.621Z,36.70
2018-08-03T17:19:48.021Z,36.60
2018-08-03T17:22:16.371Z,36.50
2018-08-03T17:24:44.729Z,36.40
2018-08-03T17:27:13.060Z,36.30
2018-08-03T17:29:41.443Z,36.10
2018-08-03T17:32:09.795Z,36.00
2018-08-03T17:34:38.210Z,35.80
2018-08-03T17:37:06.592Z,35.60
2018-08-03T17:39:34.952Z,35.10
2018-08-03T17:42:03.357Z,34.80
2018-08-03T17:44:31.696Z,34.50
2018-08-03T17:47:00.057Z,34.20
2018-08-03T17:49:28.488Z,33.80
2018-08-03T17:51:56.858Z,33.60
2018-08-03T17:54:25.300Z,33.40
2018-08-03T17:56:53.627Z,33.10
2018-08-03T17:59:22.020Z,32.90
2018-08-03T18:01:50.352Z,32.70
2018-08-03T18:04:18.671Z,32.50
2018-08-03T18:06:47.155Z,32.30
2018-08-03T18:09:15.522Z,32.10
2018-08-03T18:11:43.899Z,31.90
2018-08-03T18:14:12.246Z,31.70
2018-08-03T18:16:40.675Z,31.50
2018-08-03T18:19:09.060Z,31.40
2018-08-03T18:21:37.432Z,31.30
2018-08-03T18:24:05.787Z,31.10
2018-08-03T18:26:34.126Z,31.00
2018-08-03T18:29:02.546Z,30.80
2018-08-03T18:31:30.888Z,30.70
2018-08-03T18:33:59.277Z,30.60
2018-08-03T18:36:27.699Z,30.50
2018-08-03T18:38:56.085Z,30.40
2018-08-03T18:41:24.503Z,30.30
2018-08-03T18:43:52.892Z,30.20
2018-08-03T18:46:21.576Z,30.00
2018-08-03T18:48:50.259Z,29.90
2018-08-03T18:51:18.633Z,29.80
2018-08-03T18:53:47.514Z,29.60
2018-08-03T18:56:16.419Z,29.40
2018-08-03T18:58:44.742Z,29.20
2018-08-03T19:03:41.156Z,28.80
2018-08-03T19:06:10.110Z,28.70
2018-08-03T19:08:38.688Z,28.50
2018-08-03T19:11:07.026Z,28.40
2018-08-03T19:13:35.364Z,28.30
2018-08-03T19:18:39.015Z,28.10
2018-08-03T19:21:07.409Z,28.00
2018-08-03T19:23:35.964Z,27.90
2018-08-03T19:26:04.772Z,27.80
2018-08-03T19:28:34.430Z,27.70
2018-08-03T19:31:02.826Z,27.70
2018-08-03T19:33:31.195Z,27.60
2018-08-03T19:35:59.566Z,27.50
2018-08-03T19:38:27.956Z,27.30
2018-08-03T19:40:56.520Z,27.20
2018-08-03T19:43:25.018Z,27.10
2018-08-03T19:45:53.334Z,27.00
2018-08-03T19:48:21.684Z,27.00
2018-08-03T19:50:50.212Z,26.90
2018-08-03T19:53:18.572Z,26.80
2018-08-03T19:55:47.025Z,26.80
2018-08-03T19:58:15.430Z,26.70
2018-08-03T20:00:43.834Z,26.60
2018-08-03T20:03:12.276Z,26.50
2018-08-03T20:05:40.616Z,26.40
2018-08-03T20:08:09.148Z,26.30
2018-08-03T20:10:37.484Z,26.20
2018-08-03T20:13:05.874Z,26.10
2018-08-03T20:15:34.293Z,26.10
2018-08-03T20:18:02.709Z,26.10
2018-08-03T20:22:59.330Z,26.00
2018-08-03T20:25:27.767Z,25.90
2018-08-03T20:27:56.185Z,25.90
2018-08-03T20:30:24.610Z,25.80
2018-08-03T20:32:52.950Z,25.70
2018-08-03T20:35:22.014Z,25.60
2018-08-03T20:37:50.360Z,25.60
2018-08-03T20:40:18.736Z,25.50
2018-08-03T20:42:47.158Z,25.40
2018-08-03T20:45:15.515Z,25.30
2018-08-03T20:47:43.904Z,25.30
2018-08-03T20:50:12.249Z,25.20
2018-08-03T20:52:40.640Z,25.10
2018-08-03T20:55:09.001Z,25.00
2018-08-03T20:57:37.350Z,25.00
2018-08-03T21:00:06.394Z,24.90
2018-08-03T21:02:34.736Z,24.80
2018-08-03T21:05:03.112Z,24.70
2018-08-03T21:07:31.456Z,24.60
2018-08-03T21:09:59.821Z,24.50
2018-08-03T21:12:28.202Z,24.50
2018-08-03T21:14:56.592Z,24.40
2018-08-03T21:17:24.952Z,24.40
2018-08-03T21:19:53.284Z,24.30
2018-08-03T21:22:21.622Z,24.30
2018-08-03T21:24:49.976Z,24.30
2018-08-03T21:27:18.304Z,24.20
2018-08-03T21:29:46.686Z,24.20
2018-08-03T21:32:15.117Z,24.10
2018-08-03T21:34:43.475Z,24.10
2018-08-03T21:37:11.879Z,24.10
2018-08-03T21:39:40.211Z,24.00
2018-08-03T21:42:08.595Z,24.00
2018-08-03T21:44:37.023Z,23.90
2018-08-03T21:47:05.469Z,23.90
2018-08-03T21:49:33.825Z,23.80
2018-08-03T21:52:02.674Z,23.80
2018-08-03T21:54:31.075Z,23.70
2018-08-03T21:56:59.428Z,23.60
2018-08-03T21:59:27.779Z,23.60
2018-08-03T22:01:56.161Z,23.50
2018-08-03T22:06:52.675Z,23.40
2018-08-03T22:09:21.103Z,23.40
2018-08-03T22:11:49.457Z,23.30
2018-08-03T22:14:17.868Z,23.30
2018-08-03T22:16:46.219Z,23.20
2018-08-03T22:19:14.603Z,23.20
2018-08-03T22:21:42.971Z,23.20
2018-08-03T22:24:11.438Z,23.10
2018-08-03T22:26:39.783Z,23.10
2018-08-03T22:29:08.101Z,23.00
2018-08-03T22:31:36.508Z,23.00
2018-08-03T22:34:04.849Z,23.00
2018-08-03T22:36:33.222Z,22.90
2018-08-03T22:39:01.785Z,22.90
2018-08-03T22:41:30.240Z,22.80
2018-08-03T22:43:58.720Z,22.70
2018-08-03T22:46:27.108Z,22.70
2018-08-03T22:48:55.480Z,22.70
2018-08-03T22:51:23.814Z,22.60
2018-08-03T22:53:52.192Z,22.60
2018-08-03T22:56:20.675Z,22.60
2018-08-03T22:58:49.105Z,22.50
2018-08-03T23:01:17.486Z,22.50
2018-08-03T23:03:46.465Z,22.50
2018-08-03T23:06:14.825Z,22.40
2018-08-03T23:08:43.185Z,22.40
2018-08-03T23:11:11.599Z,22.30
2018-08-03T23:13:40.713Z,22.30
2018-08-03T23:16:09.126Z,22.30
2018-08-03T23:18:37.476Z,22.20
2018-08-03T23:21:05.894Z,22.20
2018-08-03T23:23:34.510Z,22.20
2018-08-03T23:28:31.106Z,22.10
2018-08-03T23:30:59.469Z,22.00
2018-08-03T23:33:27.845Z,22.00
2018-08-03T23:35:56.184Z,22.00
2018-08-03T23:38:24.540Z,21.90
2018-08-03T23:40:52.921Z,21.90
2018-08-03T23:43:21.264Z,21.90
2018-08-03T23:45:49.656Z,21.80
2018-08-03T23:48:18.024Z,21.80
2018-08-03T23:50:46.418Z,21.80
2018-08-03T23:53:15.319Z,21.80
2018-08-03T23:55:43.684Z,21.70
2018-08-03T23:58:12.036Z,21.70
